createdAt,value
2022-12-22T00:02:39.637Z,7.77
2022-12-22T00:05:35.445Z,8.03
2022-12-22T00:08:20.781Z,8.33
2022-12-22T00:11:06.964Z,7.83
2022-12-22T00:13:53.492Z,8.23
2022-12-22T00:16:39.685Z,7.87
2022-12-22T00:19:32.122Z,8.33
2022-12-22T00:22:30.600Z,7.90
2022-12-22T00:25:16.041Z,8.00
2022-12-22T00:28:01.521Z,9.53
2022-12-22T00:30:47.091Z,9.10
2022-12-22T00:33:35.288Z,9.13
2022-12-22T00:36:22.080Z,9.53
2022-12-22T00:39:07.463Z,10.27
2022-12-22T00:41:52.692Z,9.87
2022-12-22T00:44:39.948Z,10.37
2022-12-22T00:47:32.647Z,11.30
2022-12-22T00:50:18.329Z,11.00
2022-12-22T00:53:03.776Z,11.13
2022-12-22T00:55:51.201Z,10.33
2022-12-22T00:58:38.672Z,10.03
2022-12-22T01:01:24.200Z,9.67
2022-12-22T01:04:09.693Z,9.13
2022-12-22T01:06:55.482Z,8.60
2022-12-22T01:09:41.985Z,8.20
2022-12-22T01:12:47.050Z,8.73
2022-12-22T01:15:35.453Z,8.03
2022-12-22T01:18:21.477Z,8.97
2022-12-22T01:21:06.900Z,8.70
2022-12-22T01:23:52.457Z,8.63
2022-12-22T01:26:41.906Z,9.23
2022-12-22T01:29:27.225Z,9.00
2022-12-22T01:32:12.761Z,8.83
2022-12-22T01:34:59.267Z,8.43
2022-12-22T01:37:44.799Z,8.73
2022-12-22T01:40:40.989Z,7.07
2022-12-22T01:43:37.541Z,7.77
2022-12-22T01:46:41.841Z,7.43
2022-12-22T01:49:37.502Z,7.73
2022-12-22T01:52:23.791Z,6.83
2022-12-22T01:55:09.857Z,6.30
2022-12-22T01:57:56.310Z,6.07
2022-12-22T02:00:42.115Z,5.60
2022-12-22T02:03:38.921Z,5.83
2022-12-22T02:06:31.618Z,5.30
2022-12-22T02:09:43.516Z,4.93
2022-12-22T02:13:00.803Z,4.67
2022-12-22T02:16:18.647Z,5.50
2022-12-22T02:19:19.062Z,5.53
2022-12-22T02:22:14.023Z,5.43
2022-12-22T02:25:08.718Z,4.47
2022-12-22T02:27:57.159Z,5.00
2022-12-22T02:30:44.397Z,4.93
2022-12-22T02:33:30.949Z,4.63
2022-12-22T02:36:21.813Z,4.70
2022-12-22T02:39:07.324Z,4.50
2022-12-22T02:42:16.761Z,3.27
2022-12-22T02:45:11.904Z,2.13
2022-12-22T02:48:13.629Z,1.70
2022-12-22T02:51:05.716Z,1.10
2022-12-22T02:53:51.860Z,0.73
2022-12-22T02:56:37.594Z,0.70
2022-12-22T02:59:23.137Z,0.73
2022-12-22T03:02:08.615Z,0.70
2022-12-22T03:04:54.242Z,1.13
2022-12-22T03:07:39.481Z,0.60
2022-12-22T03:10:26.117Z,1.10
2022-12-22T03:13:11.673Z,1.20
2022-12-22T03:15:57.140Z,1.60
2022-12-22T03:18:42.685Z,1.90
2022-12-22T03:21:28.102Z,2.00
2022-12-22T03:24:13.789Z,2.13
2022-12-22T03:26:40.773Z,2.20
2022-12-22T03:29:07.698Z,2.67
2022-12-22T03:31:34.799Z,2.10
2022-12-22T03:34:01.799Z,2.43
2022-12-22T03:36:28.662Z,2.53
2022-12-22T03:38:55.752Z,2.53
2022-12-22T03:41:41.282Z,2.30
2022-12-22T03:44:26.725Z,2.17
2022-12-22T03:46:53.808Z,2.17
2022-12-22T03:49:22.480Z,2.20
2022-12-22T03:51:51.158Z,2.20
2022-12-22T03:54:20.248Z,2.50
2022-12-22T03:56:47.663Z,1.80
2022-12-22T03:59:14.891Z,1.80
2022-12-22T04:01:45.216Z,1.70
2022-12-22T04:04:14.046Z,1.23
2022-12-22T04:06:44.513Z,1.70
2022-12-22T04:09:11.569Z,1.40
2022-12-22T04:11:57.352Z,1.40
2022-12-22T04:14:28.074Z,2.13
2022-12-22T04:16:58.458Z,1.90
2022-12-22T04:19:25.582Z,1.83
2022-12-22T04:21:52.439Z,1.57
2022-12-22T04:24:19.389Z,1.63
2022-12-22T04:26:46.324Z,1.53
2022-12-22T04:29:13.337Z,1.40
2022-12-22T04:31:40.285Z,1.57
2022-12-22T04:34:07.353Z,2.03
2022-12-22T04:36:34.224Z,1.43
2022-12-22T04:39:01.129Z,2.00
2022-12-22T04:41:28.247Z,1.87
2022-12-22T04:43:55.213Z,2.43
2022-12-22T04:46:22.183Z,1.47
2022-12-22T04:48:51.979Z,1.73
2022-12-22T04:51:22.963Z,1.90
2022-12-22T04:53:49.850Z,1.80
2022-12-22T04:56:16.781Z,1.67
2022-12-22T04:58:43.843Z,1.60
2022-12-22T05:01:18.405Z,1.27
2022-12-22T05:03:46.215Z,1.80
2022-12-22T05:06:13.555Z,1.50
2022-12-22T05:08:40.557Z,1.60
2022-12-22T05:11:07.830Z,1.60
2022-12-22T05:13:34.810Z,1.53
2022-12-22T05:16:10.346Z,1.23
2022-12-22T05:18:38.783Z,1.67
2022-12-22T05:21:12.745Z,1.50
2022-12-22T05:23:40.062Z,1.60
2022-12-22T05:26:07.954Z,1.50
2022-12-22T05:28:35.218Z,2.10
2022-12-22T05:31:07.302Z,1.87
2022-12-22T05:33:34.832Z,1.80
2022-12-22T05:36:02.051Z,2.30
2022-12-22T05:38:29.091Z,2.13
2022-12-22T05:41:03.264Z,2.20
2022-12-22T05:43:30.820Z,2.40
2022-12-22T05:46:01.042Z,2.00
2022-12-22T05:48:33.700Z,2.27
2022-12-22T05:51:04.328Z,1.80
2022-12-22T05:53:31.203Z,1.67
2022-12-22T05:55:58.577Z,1.80
2022-12-22T05:58:25.514Z,1.87
2022-12-22T06:00:55.779Z,1.60
2022-12-22T06:03:22.793Z,1.90
2022-12-22T06:05:50.725Z,1.63
2022-12-22T06:08:17.693Z,1.90
2022-12-22T06:10:44.532Z,1.60
2022-12-22T06:13:11.421Z,1.93
2022-12-22T06:15:38.545Z,2.57
2022-12-22T06:18:06.712Z,1.60
2022-12-22T06:20:33.557Z,1.73
2022-12-22T06:23:00.820Z,1.87
2022-12-22T06:25:27.863Z,1.87
2022-12-22T06:27:54.817Z,1.80
2022-12-22T06:30:25.784Z,1.83
2022-12-22T06:32:56.363Z,1.50
2022-12-22T06:35:23.233Z,1.70
2022-12-22T06:37:51.201Z,2.07
2022-12-22T06:40:18.329Z,1.63
2022-12-22T06:43:08.347Z,1.50
2022-12-22T06:45:38.523Z,2.43
2022-12-22T06:48:05.783Z,1.70
2022-12-22T06:50:32.770Z,1.90
2022-12-22T06:53:00.026Z,1.70
2022-12-22T06:55:27.100Z,2.03
2022-12-22T06:57:54.930Z,1.60
2022-12-22T07:00:22.233Z,1.90
2022-12-22T07:02:49.411Z,2.23
2022-12-22T07:05:16.865Z,2.90
2022-12-22T07:07:43.942Z,2.00
2022-12-22T07:10:11.533Z,1.90
2022-12-22T07:12:38.758Z,1.90
2022-12-22T07:15:06.466Z,2.07
2022-12-22T07:17:33.532Z,1.87
2022-12-22T07:20:00.492Z,1.70
2022-12-22T07:22:30.272Z,1.70
2022-12-22T07:24:58.379Z,2.13
2022-12-22T07:27:25.267Z,2.50
2022-12-22T07:29:52.262Z,2.10
2022-12-22T07:32:19.181Z,2.03
2022-12-22T07:34:46.240Z,1.63
2022-12-22T07:37:13.876Z,2.20
2022-12-22T07:39:40.909Z,2.23
2022-12-22T07:42:26.435Z,2.00
2022-12-22T07:44:53.433Z,2.20
2022-12-22T07:47:20.340Z,2.17
2022-12-22T07:50:06.191Z,1.70
2022-12-22T07:52:33.187Z,2.20
2022-12-22T07:55:00.131Z,2.63
2022-12-22T07:57:27.161Z,1.77
2022-12-22T07:59:54.231Z,1.87
2022-12-22T08:02:21.336Z,1.90
2022-12-22T08:04:48.381Z,1.80
2022-12-22T08:07:18.512Z,1.90
2022-12-22T08:09:45.514Z,1.80
2022-12-22T08:12:12.463Z,2.77
2022-12-22T08:14:39.398Z,1.80
2022-12-22T08:17:06.328Z,1.83
2022-12-22T08:19:34.204Z,1.80
2022-12-22T08:22:01.319Z,2.40
2022-12-22T08:24:28.240Z,2.17
2022-12-22T08:27:01.337Z,2.33
2022-12-22T08:29:33.708Z,1.80
2022-12-22T08:32:01.659Z,3.77
2022-12-22T08:34:28.748Z,3.10
2022-12-22T08:36:59.466Z,2.90
2022-12-22T08:39:28.981Z,2.00
2022-12-22T08:41:56.025Z,2.80
2022-12-22T08:44:25.841Z,2.30
2022-12-22T08:46:54.402Z,2.70
2022-12-22T08:49:21.837Z,2.10
2022-12-22T08:51:49.943Z,2.10
2022-12-22T08:54:17.475Z,1.80
2022-12-22T08:56:45.485Z,2.00
2022-12-22T08:59:13.411Z,1.77
2022-12-22T09:01:44.350Z,2.20
2022-12-22T09:04:16.802Z,1.80
2022-12-22T09:06:44.135Z,1.67
2022-12-22T09:09:12.564Z,2.00
2022-12-22T09:11:40.379Z,1.50
2022-12-22T09:14:09.306Z,1.70
2022-12-22T09:16:36.614Z,1.83
2022-12-22T09:19:04.291Z,1.90
2022-12-22T09:21:31.217Z,1.50
2022-12-22T09:23:58.730Z,1.83
2022-12-22T09:26:28.183Z,2.07
2022-12-22T09:28:55.279Z,1.30
2022-12-22T09:31:23.426Z,1.87
2022-12-22T09:33:50.511Z,1.83
2022-12-22T09:36:20.848Z,2.03
2022-12-22T09:38:47.993Z,1.77
2022-12-22T09:41:31.747Z,2.27
2022-12-22T09:44:10.561Z,1.90
2022-12-22T09:46:37.684Z,2.60
2022-12-22T09:49:06.987Z,2.17
2022-12-22T09:51:44.034Z,2.50
2022-12-22T09:54:12.929Z,2.30
2022-12-22T09:56:40.358Z,1.70
2022-12-22T09:59:16.269Z,1.47
2022-12-22T10:02:04.898Z,2.13
2022-12-22T10:04:32.004Z,2.13
2022-12-22T10:07:25.304Z,2.17
2022-12-22T10:09:52.404Z,1.33
2022-12-22T10:12:22.682Z,1.83
2022-12-22T10:14:51.717Z,2.00
2022-12-22T10:17:32.139Z,2.00
2022-12-22T10:20:19.812Z,2.20
2022-12-22T10:22:51.412Z,1.77
2022-12-22T10:28:31.800Z,2.27
2022-12-22T10:31:18.809Z,1.60
2022-12-22T10:33:50.009Z,2.50
2022-12-22T10:36:32.214Z,1.70
2022-12-22T10:39:06.553Z,1.50
2022-12-22T10:41:38.257Z,1.43
2022-12-22T10:44:27.714Z,1.77
2022-12-22T10:46:58.228Z,1.63
2022-12-22T10:52:31.878Z,1.50
2022-12-22T10:55:29.351Z,1.43
2022-12-22T10:58:25.758Z,1.63
2022-12-22T11:01:04.801Z,1.50
2022-12-22T11:03:32.879Z,1.93
2022-12-22T11:06:01.246Z,1.77
2022-12-22T11:08:30.204Z,2.13
2022-12-22T11:11:38.446Z,1.70
2022-12-22T11:14:43.916Z,1.70
2022-12-22T11:17:34.963Z,2.05
2022-12-22T11:20:13.982Z,2.03
2022-12-22T11:22:54.090Z,1.97
2022-12-22T11:25:46.389Z,1.70
2022-12-22T11:28:40.735Z,1.97
2022-12-22T11:31:33.731Z,2.50
2022-12-22T11:34:39.346Z,2.07
2022-12-22T11:37:35.385Z,2.37
2022-12-22T11:40:28.268Z,1.43
2022-12-22T11:43:11.705Z,1.60
2022-12-22T11:46:31.090Z,2.07
2022-12-22T11:49:04.420Z,1.73
2022-12-22T11:52:05.240Z,2.20
2022-12-22T11:54:41.061Z,2.00
2022-12-22T11:57:14.206Z,2.83
2022-12-22T12:00:04.222Z,2.40
2022-12-22T12:02:39.991Z,1.80
2022-12-22T12:05:22.071Z,2.13
2022-12-22T12:08:20.995Z,2.27
2022-12-22T12:10:52.733Z,2.37
2022-12-22T12:13:38.685Z,2.43
2022-12-22T12:16:22.546Z,1.93
2022-12-22T12:18:58.904Z,2.47
2022-12-22T12:21:25.755Z,2.70
2022-12-22T12:24:14.230Z,2.60
2022-12-22T12:26:58.633Z,3.00
2022-12-22T12:29:28.969Z,2.47
2022-12-22T12:32:18.697Z,2.37
2022-12-22T12:34:49.957Z,1.90
2022-12-22T12:37:27.754Z,3.17
2022-12-22T12:40:07.823Z,2.53
2022-12-22T12:42:40.647Z,3.10
2022-12-22T12:45:46.715Z,2.50
2022-12-22T12:48:36.929Z,3.07
2022-12-22T12:51:42.398Z,2.47
2022-12-22T12:54:22.952Z,3.03
2022-12-22T12:57:32.242Z,4.90
2022-12-22T13:00:00.360Z,3.73
2022-12-22T13:02:27.545Z,5.87
2022-12-22T13:05:29.842Z,10.53
2022-12-22T13:08:30.251Z,5.93
2022-12-22T13:10:57.133Z,4.00
2022-12-22T13:13:26.817Z,4.47
2022-12-22T13:16:02.943Z,4.53
2022-12-22T13:18:41.815Z,4.73
2022-12-22T13:24:26.754Z,4.00
2022-12-22T13:27:00.547Z,4.77
2022-12-22T13:29:36.127Z,3.60
2022-12-22T13:32:25.211Z,2.73
2022-12-22T13:37:54.003Z,4.50
2022-12-22T13:40:27.730Z,4.17
2022-12-22T13:42:59.631Z,6.17
2022-12-22T13:45:29.993Z,2.50
2022-12-22T13:47:58.603Z,2.77
2022-12-22T13:50:34.430Z,2.93
2022-12-22T13:53:03.586Z,2.97
2022-12-22T13:55:32.616Z,3.23
2022-12-22T13:58:20.202Z,3.00
2022-12-22T14:01:05.034Z,2.80
2022-12-22T14:03:58.867Z,2.30
2022-12-22T14:06:37.205Z,2.17
2022-12-22T14:09:23.224Z,2.30
2022-12-22T14:12:06.545Z,2.53
2022-12-22T14:14:42.718Z,2.27
2022-12-22T14:17:23.254Z,2.30
2022-12-22T14:19:52.787Z,2.80
2022-12-22T14:22:25.481Z,2.47
2022-12-22T14:24:56.942Z,2.93
2022-12-22T14:27:36.126Z,3.93
2022-12-22T14:30:06.932Z,2.50
2022-12-22T14:32:43.235Z,2.50
2022-12-22T14:35:21.711Z,2.63
2022-12-22T14:37:50.891Z,2.90
2022-12-22T14:40:35.009Z,2.87
2022-12-22T14:43:05.490Z,2.57
2022-12-22T14:45:33.423Z,2.53
2022-12-22T14:48:00.385Z,2.10
2022-12-22T14:50:29.923Z,2.60
2022-12-22T14:53:05.690Z,2.00
2022-12-22T14:55:42.461Z,2.10
2022-12-22T14:58:10.517Z,2.23
2022-12-22T15:01:06.879Z,2.47
2022-12-22T15:03:36.413Z,2.10
2022-12-22T15:06:28.436Z,1.90
2022-12-22T15:10:03.629Z,2.30
2022-12-22T15:12:18.619Z,1.77
2022-12-22T15:14:48.868Z,2.30
2022-12-22T15:17:25.439Z,2.00
2022-12-22T15:19:57.631Z,2.40
2022-12-22T15:22:26.625Z,1.93
2022-12-22T15:24:53.598Z,2.73
2022-12-22T15:27:20.539Z,3.30
2022-12-22T15:29:47.492Z,5.13
2022-12-22T15:32:14.862Z,3.83
2022-12-22T15:34:42.281Z,3.40
2022-12-22T15:37:12.164Z,3.07
2022-12-22T15:39:40.618Z,2.60
2022-12-22T15:42:07.738Z,2.37
2022-12-22T15:44:38.693Z,2.40
2022-12-22T15:47:06.587Z,3.17
2022-12-22T15:49:33.623Z,2.80
2022-12-22T15:52:02.724Z,2.67
2022-12-22T15:54:32.804Z,2.50
2022-12-22T15:57:01.499Z,2.60
2022-12-22T15:59:29.110Z,2.77
2022-12-22T16:02:01.782Z,3.00
2022-12-22T16:04:29.809Z,2.83
2022-12-22T16:06:58.524Z,3.57
2022-12-22T16:09:29.022Z,2.70
2022-12-22T16:11:56.875Z,2.90
2022-12-22T16:14:24.445Z,2.80
2022-12-22T16:16:51.474Z,2.63
2022-12-22T16:19:19.254Z,3.07
2022-12-22T16:21:49.251Z,3.40
2022-12-22T16:24:31.537Z,3.30
2022-12-22T16:26:59.124Z,2.70
2022-12-22T16:29:26.951Z,3.60
2022-12-22T16:31:55.170Z,3.23
2022-12-22T16:34:29.706Z,3.90
2022-12-22T16:36:56.617Z,3.70
2022-12-22T16:39:23.563Z,3.67
2022-12-22T16:42:00.144Z,3.50
2022-12-22T16:47:19.913Z,4.33
2022-12-22T16:49:49.568Z,3.47
2022-12-22T16:52:21.155Z,2.87
2022-12-22T16:54:52.593Z,2.80
2022-12-22T16:57:20.274Z,2.70
2022-12-22T16:59:47.259Z,2.63
2022-12-22T17:02:28.916Z,3.40
2022-12-22T17:05:00.331Z,3.10
2022-12-22T17:07:55.242Z,3.60
2022-12-22T17:10:24.074Z,4.40
2022-12-22T17:12:54.684Z,3.10
2022-12-22T17:15:22.561Z,3.50
2022-12-22T17:17:51.606Z,2.67
2022-12-22T17:20:22.769Z,2.90
2022-12-22T17:22:55.184Z,3.30
2022-12-22T17:25:26.228Z,2.50
2022-12-22T17:27:56.538Z,2.63
2022-12-22T17:30:28.911Z,3.13
2022-12-22T17:32:56.105Z,3.10
2022-12-22T17:35:28.954Z,2.90
2022-12-22T17:37:56.039Z,3.43
2022-12-22T17:40:26.627Z,2.63
2022-12-22T17:42:54.015Z,3.23
2022-12-22T17:45:21.142Z,2.50
2022-12-22T17:47:48.166Z,2.67
2022-12-22T17:50:18.722Z,3.53
2022-12-22T17:52:46.860Z,2.60
2022-12-22T17:55:26.725Z,2.40
2022-12-22T17:58:06.325Z,2.60
2022-12-22T18:00:34.419Z,2.60
2022-12-22T18:03:01.655Z,2.20
2022-12-22T18:05:34.409Z,2.80
2022-12-22T18:08:01.478Z,2.30
2022-12-22T18:10:39.822Z,2.57
2022-12-22T18:13:15.988Z,3.67
2022-12-22T18:15:43.039Z,3.60
2022-12-22T18:18:15.140Z,3.23
2022-12-22T18:20:43.046Z,3.23
2022-12-22T18:23:20.842Z,3.80
2022-12-22T18:25:49.379Z,4.17
2022-12-22T18:28:17.607Z,4.50
2022-12-22T18:30:45.268Z,4.30
2022-12-22T18:33:12.467Z,3.73
2022-12-22T18:35:40.657Z,3.67
2022-12-22T18:38:21.567Z,3.70
2022-12-22T18:40:48.632Z,5.63
2022-12-22T18:43:15.571Z,4.23
2022-12-22T18:45:42.515Z,2.90
2022-12-22T18:48:09.563Z,3.40
2022-12-22T18:50:36.897Z,2.70
2022-12-22T18:53:15.154Z,2.43
2022-12-22T18:55:42.347Z,2.00
2022-12-22T18:58:13.358Z,2.10
2022-12-22T19:00:40.603Z,1.93
2022-12-22T19:03:19.119Z,2.47
2022-12-22T19:05:46.438Z,2.57
2022-12-22T19:08:21.878Z,2.33
2022-12-22T19:10:53.399Z,2.40
2022-12-22T19:13:38.981Z,2.20
2022-12-22T19:16:07.215Z,3.90
2022-12-22T19:18:34.326Z,3.43
2022-12-22T19:21:01.294Z,4.60
2022-12-22T19:23:28.178Z,3.67
2022-12-22T19:26:07.005Z,3.67
2022-12-22T19:28:39.033Z,3.40
2022-12-22T19:31:16.183Z,2.90
2022-12-22T19:33:43.948Z,3.00
2022-12-22T19:36:25.933Z,2.77
2022-12-22T19:39:02.635Z,3.30
2022-12-22T19:41:54.847Z,2.50
2022-12-22T19:44:28.395Z,3.20
2022-12-22T19:46:59.203Z,2.47
2022-12-22T19:49:27.822Z,2.73
2022-12-22T19:51:58.440Z,2.10
2022-12-22T19:54:25.581Z,2.73
2022-12-22T19:56:55.023Z,2.50
2022-12-22T19:59:38.987Z,3.20
2022-12-22T20:02:28.090Z,2.57
2022-12-22T20:04:56.103Z,2.57
2022-12-22T20:07:25.776Z,2.63
2022-12-22T20:09:53.593Z,3.00
2022-12-22T20:12:35.835Z,2.90
2022-12-22T20:15:26.514Z,3.07
2022-12-22T20:17:54.953Z,3.70
2022-12-22T20:20:26.491Z,3.57
2022-12-22T20:22:56.636Z,3.17
2022-12-22T20:25:27.304Z,3.17
2022-12-22T20:27:55.530Z,3.80
2022-12-22T20:30:28.877Z,4.70
2022-12-22T20:32:56.383Z,3.20
2022-12-22T20:35:24.328Z,3.50
2022-12-22T20:37:51.211Z,2.77
2022-12-22T20:40:23.158Z,3.07
2022-12-22T20:42:50.729Z,2.90
2022-12-22T20:45:21.131Z,4.23
2022-12-22T20:47:49.885Z,4.20
2022-12-22T20:50:27.580Z,4.00
2022-12-22T20:52:56.694Z,3.20
2022-12-22T20:55:26.651Z,3.33
2022-12-22T20:57:54.192Z,2.53
2022-12-22T21:00:25.733Z,2.80
2022-12-22T21:02:53.322Z,3.10
2022-12-22T21:05:21.282Z,4.33
2022-12-22T21:07:49.334Z,2.83
2022-12-22T21:10:18.644Z,3.47
2022-12-22T21:12:45.939Z,3.00
2022-12-22T21:15:18.206Z,2.67
2022-12-22T21:17:46.349Z,2.17
2022-12-22T21:20:25.620Z,2.10
2022-12-22T21:22:52.850Z,2.70
2022-12-22T21:25:19.909Z,2.07
2022-12-22T21:27:48.764Z,1.90
2022-12-22T21:30:30.727Z,2.30
2022-12-22T21:32:59.930Z,2.27
2022-12-22T21:35:31.662Z,2.07
2022-12-22T21:37:59.223Z,1.53
2022-12-22T21:40:28.682Z,1.93
2022-12-22T21:42:56.912Z,2.37
2022-12-22T21:45:30.514Z,2.30
2022-12-22T21:48:00.943Z,1.60
2022-12-22T21:50:33.936Z,1.17
2022-12-22T21:53:01.721Z,1.87
2022-12-22T21:55:33.158Z,2.10
2022-12-22T21:58:00.182Z,1.70
2022-12-22T22:00:28.780Z,1.63
2022-12-22T22:02:56.406Z,1.77
2022-12-22T22:05:33.692Z,1.70
2022-12-22T22:08:01.660Z,1.70
2022-12-22T22:10:33.904Z,2.10
2022-12-22T22:13:01.554Z,1.90
2022-12-22T22:15:29.939Z,2.53
2022-12-22T22:18:01.331Z,2.20
2022-12-22T22:20:33.249Z,2.23
2022-12-22T22:23:00.666Z,2.43
2022-12-22T22:25:28.050Z,1.60
2022-12-22T22:27:59.215Z,1.80
2022-12-22T22:30:27.001Z,1.27
2022-12-22T22:32:54.983Z,1.60
2022-12-22T22:35:23.341Z,1.60
2022-12-22T22:37:52.354Z,1.30
2022-12-22T22:40:22.680Z,1.73
2022-12-22T22:42:49.581Z,1.53
2022-12-22T22:45:24.124Z,1.63
2022-12-22T22:47:52.710Z,1.83
2022-12-22T22:50:22.936Z,1.83
2022-12-22T22:52:49.907Z,1.57
2022-12-22T22:55:17.105Z,1.20
2022-12-22T22:57:43.967Z,1.40
2022-12-22T23:00:13.766Z,1.50
2022-12-22T23:02:41.047Z,1.00
2022-12-22T23:05:08.912Z,1.10
2022-12-22T23:07:36.577Z,1.10
2022-12-22T23:10:05.440Z,1.23
2022-12-22T23:12:32.539Z,1.17
2022-12-22T23:15:01.816Z,1.40
2022-12-22T23:17:31.763Z,1.20
2022-12-22T23:19:58.727Z,1.00
2022-12-22T23:22:25.651Z,0.90
2022-12-22T23:24:52.621Z,0.63
2022-12-22T23:27:19.802Z,1.03
2022-12-22T23:29:46.664Z,1.07
2022-12-22T23:32:13.575Z,1.10
2022-12-22T23:34:40.444Z,0.90
2022-12-22T23:37:07.378Z,1.10
2022-12-22T23:39:34.353Z,0.90
2022-12-22T23:42:01.226Z,0.70
2022-12-22T23:44:28.116Z,0.70
2022-12-22T23:46:55.259Z,0.67
2022-12-22T23:49:22.279Z,0.73
2022-12-22T23:51:49.289Z,0.87
2022-12-22T23:54:16.142Z,0.80
2022-12-22T23:56:43.005Z,0.60
2022-12-22T23:59:09.858Z,1.00
